Time;durP1;ratioP1;P1;durP2;ratioP2;P2;SDS_P1;SDS_P2;PMS_P1;PMS_P2;Temp;Humidity;BMP_temperature;BMP_pressure;BME280_temperature;BME280_humidity;BME280_pressure;Samples;Min_cycle;Max_cycle;Signal;HPM_P1;HPM_P2
2023/03/09 00:00:52;;;;;;;;;2.00;2.00;;;;;13.73;76.04;99548.88;4999806;28;46218;-81
2023/03/09 00:03:17;;;;;;;;;3.67;2.67;;;;;13.73;75.60;99548.00;5000231;28;45410;-81
2023/03/09 00:05:51;;;;;;;;;3.67;2.67;;;;;13.65;75.93;99540.13;4999470;28;45506;-82
2023/03/09 00:08:16;;;;;;;;;3.67;1.00;;;;;13.71;76.23;99553.25;5000340;28;45431;-82
2023/03/09 00:10:42;;;;;;;;;1.67;1.00;;;;;13.66;76.61;99549.72;4999733;28;45871;-82
2023/03/09 00:13:07;;;;;;;;;1.00;1.00;;;;;13.66;76.15;99560.22;4984675;28;45473;-82
2023/03/09 00:15:33;;;;;;;;;1.00;1.00;;;;;13.58;76.13;99543.59;4997752;28;45461;-81
2023/03/09 00:17:59;;;;;;;;;1.67;1.00;;;;;13.56;76.45;99545.34;5000367;28;45572;-82
2023/03/09 00:20:24;;;;;;;;;2.33;2.00;;;;;13.59;76.74;99553.25;4999200;28;45456;-82
2023/03/09 00:22:52;;;;;;;;;2.00;1.00;;;;;13.55;76.90;99554.13;4999409;28;45427;-81
2023/03/09 00:25:19;;;;;;;;;1.00;1.00;;;;;13.52;76.46;99554.97;4999919;28;45458;-80
2023/03/09 00:27:48;;;;;;;;;1.00;1.00;;;;;13.56;75.90;99555.84;5000085;28;45343;-81
2023/03/09 00:30:14;;;;;;;;;0.00;0.00;;;;;13.54;76.52;99557.59;5002811;28;46225;-82
2023/03/09 00:32:40;;;;;;;;;1.00;1.00;;;;;13.46;77.40;99546.22;5000311;28;45524;-81
2023/03/09 00:35:08;;;;;;;;;1.00;1.00;;;;;13.34;77.05;99539.19;4998944;28;45561;-81
2023/03/09 00:37:34;;;;;;;;;1.00;1.00;;;;;13.41;77.11;99558.44;4999678;28;45494;-80
2023/03/09 00:39:59;;;;;;;;;0.00;0.00;;;;;13.42;76.90;99552.31;4999113;28;45799;-82
2023/03/09 00:42:25;;;;;;;;;2.00;0.33;;;;;13.39;76.88;99547.97;4998347;28;45570;-78
2023/03/09 00:44:50;;;;;;;;;1.00;1.00;;;;;13.40;77.08;99546.19;4998718;28;46051;-82
2023/03/09 00:47:17;;;;;;;;;1.00;1.00;;;;;13.39;76.58;99544.44;5014364;28;45679;-82
2023/03/09 00:49:42;;;;;;;;;1.00;1.00;;;;;13.35;77.05;99540.06;4991229;28;45435;-81
2023/03/09 00:52:08;;;;;;;;;1.33;1.33;;;;;13.17;77.38;99523.38;5009798;28;47127;-81
2023/03/09 00:54:34;;;;;;;;;1.00;0.00;;;;;13.21;77.48;99540.88;4999844;28;45482;-80
2023/03/09 00:57:01;;;;;;;;;1.00;1.00;;;;;13.17;77.55;99533.88;4998680;28;45435;-81
2023/03/09 00:59:28;;;;;;;;;1.00;1.00;;;;;13.16;77.58;99532.09;4998841;28;45574;-81
2023/03/09 01:01:54;;;;;;;;;2.33;1.00;;;;;13.08;77.77;99528.59;4998797;28;45252;-81
2023/03/09 01:04:19;;;;;;;;;0.00;0.00;;;;;13.02;78.24;99533.81;4999194;28;45449;-81
2023/03/09 01:06:45;;;;;;;;;1.00;1.00;;;;;12.95;77.46;99519.78;4998579;28;45382;-82
2023/03/09 01:09:10;;;;;;;;;1.00;1.00;;;;;12.97;77.64;99528.56;4997843;28;45932;-79
2023/03/09 01:11:37;;;;;;;;;2.00;2.00;;;;;12.89;77.92;99520.66;4988032;28;45560;-79
2023/03/09 01:14:02;;;;;;;;;2.00;1.00;;;;;12.89;78.34;99533.78;4991889;28;45515;-81
2023/03/09 01:16:28;;;;;;;;;1.00;1.00;;;;;12.87;77.98;99540.75;4999037;28;45605;-82
2023/03/09 01:18:54;;;;;;;;;2.00;1.33;;;;;12.87;77.96;99537.22;4998702;28;46016;-81
2023/03/09 01:21:20;;;;;;;;;50.25;38.00;;;;;12.81;77.89;99532.88;4998757;28;45383;-82
2023/03/09 01:23:45;;;;;;;;;8.25;7.50;;;;;12.82;77.58;99550.31;4998416;28;45470;-81
2023/03/09 01:26:11;;;;;;;;;7.00;4.50;;;;;12.81;77.67;99545.97;4998658;28;45430;-81
2023/03/09 01:28:37;;;;;;;;;4.00;3.00;;;;;12.72;78.19;99533.66;4998960;28;45434;-81
2023/03/09 01:31:12;;;;;;;;;3.00;2.00;;;;;12.66;77.76;99527.53;4998609;28;45726;-79
2023/03/09 01:33:38;;;;;;;;;3.75;3.00;;;;;12.63;78.65;99523.13;4998618;28;45387;-81
2023/03/09 01:36:05;;;;;;;;;4.00;3.00;;;;;12.60;78.75;99519.66;4998386;28;45434;-81
2023/03/09 01:38:31;;;;;;;;;5.25;5.25;;;;;12.57;78.49;99530.97;4997908;28;45474;-82
2023/03/09 01:40:57;;;;;;;;;2.00;2.00;;;;;12.49;78.84;99525.72;4997969;28;45370;-81
2023/03/09 01:43:36;;;;;;;;;3.67;3.00;;;;;12.47;78.79;99524.81;4997892;28;45435;-81
2023/03/09 01:46:30;;;;;;;;;5.00;3.00;;;;;12.45;78.73;99528.28;4998284;28;45372;-81
2023/03/09 01:49:07;;;;;;;;;6.00;4.00;;;;;12.44;78.79;99542.25;4997340;28;45653;-80
2023/03/09 01:52:08;;;;;;;;;7.50;7.00;;;;;12.40;78.44;99548.34;4997253;28;45444;-80
2023/03/09 01:54:58;;;;;;;;;7.25;7.25;;;;;12.38;78.13;99548.34;4998297;28;45358;-81
2023/03/09 01:57:28;;;;;;;;;8.75;8.00;;;;;12.33;78.66;99543.06;4984995;28;45491;-78
2023/03/09 01:59:59;;;;;;;;;6.25;6.25;;;;;12.28;78.51;99530.81;4997752;28;45252;-81
2023/03/09 02:02:29;;;;;;;;;6.25;5.25;;;;;12.30;78.85;99521.22;4997954;28;45327;-80
2023/03/09 02:04:59;;;;;;;;;7.00;6.75;;;;;12.23;79.01;99511.56;4982688;28;45380;-81
2023/03/09 02:07:27;;;;;;;;;6.50;5.50;;;;;12.23;78.98;99512.44;4998305;28;45423;-81
2023/03/09 02:09:59;;;;;;;;;8.50;8.00;;;;;12.21;78.98;99518.53;4997703;28;45425;-81
2023/03/09 02:12:26;;;;;;;;;7.00;6.75;;;;;12.20;78.82;99522.03;4997639;28;47057;-82
2023/03/09 02:14:52;;;;;;;;;7.50;6.75;;;;;12.11;78.87;99502.75;4990767;28;45311;-80
2023/03/09 02:17:18;;;;;;;;;5.75;5.00;;;;;12.17;78.79;99517.63;4987856;28;45447;-82
2023/03/09 02:19:58;;;;;;;;;4.33;3.00;;;;;12.08;78.31;99496.63;4997636;28;46249;-80
2023/03/09 02:22:23;;;;;;;;;2.50;2.00;;;;;12.16;78.88;99504.56;4996572;28;45394;-81
2023/03/09 02:25:08;;;;;;;;;7.50;4.50;;;;;12.05;79.11;99486.13;4997041;28;45303;-80
2023/03/09 02:27:34;;;;;;;;;7.00;6.00;;;;;12.08;79.30;99500.13;4998063;28;45292;-80
2023/03/09 02:30:00;;;;;;;;;14.50;13.50;;;;;12.02;79.07;99488.75;4997002;28;45517;-81
2023/03/09 02:32:29;;;;;;;;;5.75;4.00;;;;;12.05;79.04;99492.22;4997469;28;45455;-78
2023/03/09 02:34:55;;;;;;;;;7.00;4.50;;;;;11.92;78.89;99472.09;4996920;28;47141;-79
2023/03/09 02:37:31;;;;;;;;;3.00;2.00;;;;;12.00;78.61;99483.50;4993107;28;45578;-81
2023/03/09 02:40:00;;;;;;;;;2.67;2.00;;;;;11.97;79.28;99485.19;4996151;28;45418;-79
2023/03/09 02:42:27;;;;;;;;;2.00;2.00;;;;;11.97;79.20;99474.72;4996468;28;45481;-81
2023/03/09 02:44:53;;;;;;;;;2.00;2.00;;;;;11.88;79.81;99459.81;4997215;28;45446;-82
2023/03/09 02:47:21;;;;;;;;;3.00;1.00;;;;;11.93;79.91;99484.28;4996888;28;45588;-81
2023/03/09 02:49:47;;;;;;;;;1.00;1.00;;;;;11.89;79.72;99472.06;4996550;28;46233;-81
2023/03/09 02:52:13;;;;;;;;;2.50;2.00;;;;;11.91;79.29;99483.41;4996955;28;45486;-74
2023/03/09 02:54:39;;;;;;;;;1.50;1.50;;;;;11.78;79.50;99461.50;4997677;28;45511;-81
2023/03/09 02:57:05;;;;;;;;;1.67;1.33;;;;;11.78;79.45;99477.19;5012161;28;45178;-79
2023/03/09 02:59:31;;;;;;;;;4.00;3.00;;;;;11.72;79.66;99472.78;4996480;28;46385;-80
2023/03/09 03:01:57;;;;;;;;;3.33;2.00;;;;;11.61;79.84;99455.25;4996907;28;45385;-80
2023/03/09 03:04:22;;;;;;;;;2.00;2.00;;;;;11.63;79.91;99470.06;4997262;28;45448;-77
2023/03/09 03:06:48;;;;;;;;;1.25;1.00;;;;;11.63;79.96;99470.06;4996964;28;45410;-77
2023/03/09 03:09:14;;;;;;;;;3.25;3.00;;;;;11.64;80.20;99470.94;4996716;28;46270;-78
2023/03/09 03:11:39;;;;;;;;;3.67;2.67;;;;;11.62;80.44;99464.81;4996949;28;45486;-80
2023/03/09 03:14:05;;;;;;;;;3.00;2.25;;;;;11.61;80.43;99468.31;4996996;28;45514;-81
2023/03/09 03:16:30;;;;;;;;;1.00;1.00;;;;;11.55;79.70;99445.59;4996739;28;45314;-81
2023/03/09 03:18:56;;;;;;;;;1.00;1.00;;;;;11.61;79.26;99448.25;4996195;28;46159;-80
2023/03/09 03:21:21;;;;;;;;;2.25;2.00;;;;;11.60;78.79;99454.38;4996836;28;46062;-80
2023/03/09 03:23:47;;;;;;;;;2.67;1.00;;;;;11.49;79.21;99433.34;4984813;28;45440;-80
2023/03/09 03:26:12;;;;;;;;;2.00;2.00;;;;;11.58;79.26;99450.88;4992342;28;45396;-80
2023/03/09 03:28:38;;;;;;;;;2.75;2.00;;;;;11.59;79.40;99449.13;4994388;28;46380;-79
2023/03/09 03:31:04;;;;;;;;;1.00;1.00;;;;;11.53;79.29;99442.97;4996487;28;45492;-78
2023/03/09 03:33:29;;;;;;;;;1.00;1.00;;;;;11.51;79.86;99430.75;4995940;28;46075;-81
2023/03/09 03:35:56;;;;;;;;;1.33;1.00;;;;;11.49;79.90;99428.09;4996602;28;45509;-80
2023/03/09 03:38:21;;;;;;;;;2.00;1.75;;;;;11.47;79.92;99423.75;4995989;28;46016;-81
2023/03/09 03:40:47;;;;;;;;;1.75;1.00;;;;;11.53;79.93;99439.47;4996113;28;45504;-81
2023/03/09 03:43:13;;;;;;;;;2.00;2.00;;;;;11.51;79.89;99441.19;4997012;28;45644;-81
2023/03/09 03:45:39;;;;;;;;;4.00;3.75;;;;;11.49;79.77;99445.53;4996635;28;45381;-80
2023/03/09 03:48:05;;;;;;;;;2.25;2.25;;;;;11.50;79.96;99439.47;4996180;28;45439;-80
2023/03/09 03:50:30;;;;;;;;;3.00;1.00;;;;;11.45;79.19;99434.19;4996690;28;45516;-79
2023/03/09 03:52:56;;;;;;;;;1.75;1.50;;;;;11.45;78.78;99433.31;4996570;28;45686;-80
2023/03/09 03:55:22;;;;;;;;;2.75;1.50;;;;;11.44;79.50;99440.28;4994644;28;45590;-80
2023/03/09 03:57:47;;;;;;;;;1.00;1.00;;;;;11.48;79.60;99441.16;4998582;28;45989;-80
2023/03/09 04:00:13;;;;;;;;;2.50;2.00;;;;;11.45;79.58;99442.03;5005612;28;45149;-81
2023/03/09 04:02:39;;;;;;;;;1.00;1.00;;;;;11.44;79.71;99439.38;5008472;28;45470;-78
2023/03/09 04:05:05;;;;;;;;;2.00;1.00;;;;;11.31;79.92;99426.22;5010443;28;44728;-80
2023/03/09 04:07:31;;;;;;;;;1.75;1.75;;;;;11.37;80.15;99445.44;5008958;28;45137;-77
2023/03/09 04:09:57;;;;;;;;;1.75;1.75;;;;;11.37;79.73;99446.31;5012061;28;45276;-80
2023/03/09 04:12:23;;;;;;;;;1.00;1.00;;;;;11.35;79.98;99448.91;5016469;28;44864;-80
2023/03/09 04:14:48;;;;;;;;;2.00;2.00;;;;;11.33;80.47;99441.91;5016987;28;44810;-72
2023/03/09 04:17:14;;;;;;;;;3.00;2.00;;;;;11.29;80.00;99455.84;5016965;28;46076;-78
2023/03/09 04:19:39;;;;;;;;;1.67;1.00;;;;;11.29;79.95;99461.94;5013783;28;44814;-81
2023/03/09 04:22:06;;;;;;;;;3.00;2.00;;;;;11.27;79.67;99466.25;4995504;28;45614;-80
2023/03/09 04:24:32;;;;;;;;;4.00;2.00;;;;;11.23;79.71;99461.00;4996671;28;45388;-80
2023/03/09 04:26:58;;;;;;;;;1.00;1.00;;;;;11.32;79.72;99466.28;4995079;28;45875;-80
2023/03/09 04:29:24;;;;;;;;;2.33;1.00;;;;;11.30;80.19;99458.47;4996211;28;45228;-80
2023/03/09 04:31:50;;;;;;;;;2.50;2.00;;;;;11.23;80.48;99451.41;4994305;28;45267;-80
2023/03/09 04:34:15;;;;;;;;;3.25;3.00;;;;;11.20;80.79;99461.84;4996572;28;45510;-79
2023/03/09 04:36:41;;;;;;;;;3.75;2.00;;;;;11.20;80.97;99477.53;4995432;28;46250;-81
2023/03/09 04:39:06;;;;;;;;;3.00;2.00;;;;;11.21;80.63;99474.06;4995859;28;45479;-80
2023/03/09 04:41:32;;;;;;;;;27.50;25.50;;;;;11.22;80.79;99473.19;4996127;28;45693;-81
2023/03/09 04:43:59;;;;;;;;;3.25;3.25;;;;;11.18;80.53;99458.34;4995462;28;45360;-79
2023/03/09 04:46:24;;;;;;;;;3.67;3.00;;;;;11.21;80.66;99457.50;4998715;28;45435;-81
2023/03/09 04:48:50;;;;;;;;;3.00;2.00;;;;;11.24;80.22;99457.50;4999023;28;45499;-80
2023/03/09 04:51:15;;;;;;;;;4.00;1.75;;;;;11.25;80.28;99460.16;4999541;28;45397;-81
2023/03/09 04:53:41;;;;;;;;;1.00;1.00;;;;;11.28;80.61;99465.41;4999030;28;45445;-80
2023/03/09 04:56:07;;;;;;;;;4.00;3.75;;;;;11.29;80.53;99480.22;4999057;28;45413;-80
2023/03/09 04:58:33;;;;;;;;;3.00;3.00;;;;;11.20;80.75;99458.34;4998782;28;45456;-81
2023/03/09 05:01:00;;;;;;;;;4.00;2.00;;;;;11.18;80.44;99460.97;4998599;28;45225;-79
2023/03/09 05:03:26;;;;;;;;;1.00;1.00;;;;;11.27;80.58;99466.25;4997450;28;45409;-81
2023/03/09 05:05:52;;;;;;;;;2.00;2.00;;;;;11.31;80.25;99462.81;4998233;28;45661;-80
2023/03/09 05:08:17;;;;;;;;;2.50;2.50;;;;;11.34;80.24;99455.00;4999428;28;45657;-80
2023/03/09 05:10:43;;;;;;;;;6.75;6.50;;;;;11.25;79.95;99428.78;4998823;28;45434;-81
2023/03/09 05:13:08;;;;;;;;;16.25;16.00;;;;;11.37;79.59;99424.53;4998480;28;45419;-81
2023/03/09 05:15:37;;;;;;;;;6.00;6.00;;;;;11.47;79.12;99426.34;4997844;28;45678;-81
2023/03/09 05:18:02;;;;;;;;;11.50;10.75;;;;;11.53;79.18;99429.00;4998379;28;45406;-80
2023/03/09 05:20:28;;;;;;;;;6.50;6.50;;;;;11.57;78.79;99428.19;4998334;28;45331;-81
2023/03/09 05:22:56;;;;;;;;;9.75;9.00;;;;;11.56;78.44;99415.97;4998950;28;45389;-81
2023/03/09 05:25:22;;;;;;;;;5.00;5.00;;;;;11.66;77.71;99430.00;4998828;28;45312;-79
2023/03/09 05:27:48;;;;;;;;;6.00;5.75;;;;;11.69;77.73;99430.00;5013507;28;45498;-80
2023/03/09 05:30:15;;;;;;;;;1.00;1.00;;;;;11.67;77.41;99411.69;4999041;28;45458;-80
2023/03/09 05:32:40;;;;;;;;;2.00;1.00;;;;;11.74;77.22;99423.94;4997878;28;45535;-81
2023/03/09 05:35:06;;;;;;;;;2.00;2.00;;;;;11.75;77.44;99414.34;4998940;28;45371;-78
2023/03/09 05:37:33;;;;;;;;;2.00;2.00;;;;;11.73;77.88;99416.94;4998201;28;45506;-81
2023/03/09 05:39:59;;;;;;;;;1.75;1.75;;;;;11.72;77.83;99409.13;4998467;28;45357;-80
2023/03/09 05:42:24;;;;;;;;;1.50;1.50;;;;;11.71;77.74;99404.75;4998093;28;45438;-80
2023/03/09 05:44:50;;;;;;;;;1.00;1.00;;;;;11.70;77.55;99403.00;5007560;28;47082;-80
2023/03/09 05:47:16;;;;;;;;;1.00;1.00;;;;;11.67;77.76;99401.22;4988750;28;45317;-80
2023/03/09 05:49:41;;;;;;;;;2.25;1.00;;;;;11.67;77.89;99390.75;4996671;28;45520;-81
2023/03/09 05:52:07;;;;;;;;;23.50;23.00;;;;;11.54;77.91;99392.41;4997361;28;45763;-81
2023/03/09 05:54:32;;;;;;;;;17.00;16.75;;;;;11.51;78.27;99391.50;4997776;28;45502;-79
2023/03/09 05:56:58;;;;;;;;;96.33;87.33;;;;;11.49;78.29;99386.25;4996717;28;45403;-81
2023/03/09 05:59:24;;;;;;;;;43.50;38.50;;;;;11.42;78.16;99365.28;4997678;28;45515;-78
2023/03/09 06:01:50;;;;;;;;;28.75;27.75;;;;;11.43;78.04;99370.53;4997424;28;45749;-81
2023/03/09 06:04:15;;;;;;;;;11.00;10.50;;;;;11.46;78.14;99375.81;4997265;28;45997;-81
2023/03/09 06:06:41;;;;;;;;;12.75;12.00;;;;;11.48;78.06;99368.84;4998015;28;45339;-81
2023/03/09 06:09:06;;;;;;;;;14.25;13.00;;;;;11.45;77.50;99363.56;4997523;28;45738;-80
2023/03/09 06:11:32;;;;;;;;;6.25;6.25;;;;;11.47;77.26;99366.22;4998258;28;45777;-76
2023/03/09 06:13:57;;;;;;;;;3.00;3.00;;;;;11.54;77.48;99376.72;4996971;28;45667;-81
2023/03/09 06:16:24;;;;;;;;;2.00;2.00;;;;;11.56;76.59;99389.81;4998005;28;45379;-71
2023/03/09 06:18:50;;;;;;;;;4.25;4.25;;;;;11.51;76.61;99374.06;4997424;28;45476;-79
2023/03/09 06:21:16;;;;;;;;;3.00;2.00;;;;;11.58;76.55;99398.56;4996318;28;45514;-78
2023/03/09 06:23:42;;;;;;;;;1.00;1.00;;;;;11.54;76.04;99387.19;4995910;28;46926;-81
2023/03/09 06:26:11;;;;;;;;;2.00;2.00;;;;;11.63;75.82;99402.06;4996714;28;45445;-81
2023/03/09 06:28:37;;;;;;;;;3.00;2.00;;;;;11.63;75.13;99385.50;4997559;28;45568;-81
2023/03/09 06:31:12;;;;;;;;;1.00;1.00;;;;;11.76;74.67;99389.97;4997788;28;45659;-81
2023/03/09 06:33:38;;;;;;;;;1.67;1.00;;;;;11.84;74.20;99390.00;4996614;28;45667;-79
2023/03/09 06:36:04;;;;;;;;;2.00;2.00;;;;;11.94;73.73;99399.69;4995719;28;45626;-80
2023/03/09 06:38:30;;;;;;;;;5.00;4.00;;;;;12.02;72.77;99398.00;5011976;28;45444;-73
2023/03/09 06:40:56;;;;;;;;;1.33;1.33;;;;;12.06;72.55;99394.53;4996273;28;45415;-76
2023/03/09 06:43:22;;;;;;;;;1.67;1.00;;;;;12.09;71.96;99373.59;4996545;28;45446;-82
2023/03/09 06:45:48;;;;;;;;;1.00;1.00;;;;;12.26;71.44;99386.78;4996530;28;45332;-81
2023/03/09 06:48:14;;;;;;;;;7.25;4.50;;;;;12.35;71.09;99383.31;4993985;28;45600;-82
2023/03/09 06:50:40;;;;;;;;;2.00;2.00;;;;;12.39;70.36;99382.44;4996620;28;45311;-81
2023/03/09 06:53:06;;;;;;;;;10.00;8.25;;;;;12.52;70.34;99399.09;4996769;28;45930;-80
2023/03/09 06:55:31;;;;;;;;;4.75;4.00;;;;;12.50;69.96;99393.84;4998231;28;45422;-82
2023/03/09 06:57:57;;;;;;;;;6.00;5.25;;;;;12.68;69.73;99416.63;4997588;28;45530;-81
2023/03/09 07:00:23;;;;;;;;;4.00;3.00;;;;;12.68;69.38;99408.75;4997445;28;45285;-82
2023/03/09 07:02:49;;;;;;;;;5.75;4.75;;;;;12.82;69.02;99416.66;4996487;28;45949;-80
2023/03/09 07:05:14;;;;;;;;;3.00;2.33;;;;;12.81;68.81;99400.91;4995860;28;45441;-82
2023/03/09 07:07:42;;;;;;;;;3.67;3.33;;;;;12.97;68.04;99422.81;4995116;28;45857;-82
2023/03/09 07:10:12;;;;;;;;;4.00;4.00;;;;;12.97;67.88;99399.22;4994390;28;45613;-81
2023/03/09 07:12:38;;;;;;;;;7.00;6.50;;;;;13.13;67.24;99421.97;4993134;28;45316;-80
2023/03/09 07:15:05;;;;;;;;;5.25;5.00;;;;;13.18;67.08;99421.97;4995563;28;45320;-82
2023/03/09 07:17:31;;;;;;;;;6.00;6.00;;;;;13.22;67.04;99416.72;4995336;28;45475;-83
2023/03/09 07:19:57;;;;;;;;;5.00;5.00;;;;;13.27;66.28;99420.25;4994183;28;45495;-77
2023/03/09 07:22:23;;;;;;;;;7.50;6.75;;;;;13.31;66.22;99422.03;4995404;28;45402;-82
2023/03/09 07:24:48;;;;;;;;;4.00;3.00;;;;;13.37;65.78;99420.25;4995489;28;46046;-80
2023/03/09 07:27:14;;;;;;;;;4.25;4.00;;;;;13.39;65.23;99410.66;4995359;28;45463;-79
2023/03/09 07:29:40;;;;;;;;;3.00;3.00;;;;;13.51;65.37;99406.28;4993814;28;45407;-82
2023/03/09 07:32:07;;;;;;;;;3.00;3.00;;;;;13.60;65.11;99408.03;4994866;28;45579;-82
2023/03/09 07:34:33;;;;;;;;;1.00;1.00;;;;;13.72;63.85;99400.13;4994927;28;45398;-81
2023/03/09 07:36:59;;;;;;;;;2.00;2.00;;;;;13.90;63.65;99398.38;4996540;28;46068;-82
2023/03/09 07:39:25;;;;;;;;;6.67;4.00;;;;;14.05;62.95;99400.09;5011224;28;45506;-81
2023/03/09 07:41:50;;;;;;;;;3.00;2.00;;;;;14.39;62.75;99407.88;5007551;28;47083;-82
2023/03/09 07:44:16;;;;;;;;;3.67;3.00;;;;;14.71;62.22;99413.88;4995997;28;45683;-82
2023/03/09 07:46:41;;;;;;;;;4.33;2.33;;;;;15.77;59.63;99406.16;4996065;28;45441;-82
2023/03/09 07:49:07;;;;;;;;;2.33;2.00;;;;;17.39;56.91;99408.53;4996832;28;45312;-82
2023/03/09 07:51:33;;;;;;;;;1.00;1.00;;;;;18.41;51.54;99389.06;4996018;28;46155;-82
2023/03/09 07:53:59;;;;;;;;;2.33;1.33;;;;;19.36;50.41;99395.78;4996101;28;45382;-82
2023/03/09 07:56:25;;;;;;;;;4.00;3.00;;;;;20.02;48.85;99397.66;4994722;28;45671;-82
2023/03/09 07:58:52;;;;;;;;;1.67;1.67;;;;;20.63;47.16;99391.56;4998764;28;45436;-81
2023/03/09 08:01:18;;;;;;;;;2.33;1.67;;;;;21.10;45.62;99396.34;4995020;28;46315;-70
2023/03/09 08:03:47;;;;;;;;;4.33;4.33;;;;;21.64;43.60;99391.03;4995324;28;45583;-82
2023/03/09 08:06:14;;;;;;;;;1.00;1.00;;;;;21.65;42.48;99403.41;4995176;28;45511;-83
2023/03/09 08:08:40;;;;;;;;;1.00;1.00;;;;;21.63;44.12;99402.59;4993297;28;45517;-69
2023/03/09 08:11:07;;;;;;;;;1.00;1.00;;;;;22.27;41.95;99403.09;4995552;28;45332;-83
2023/03/09 08:13:35;;;;;;;;;0.33;0.00;;;;;23.12;40.56;99404.31;4986068;28;45463;-84
2023/03/09 08:16:03;;;;;;;;;1.00;1.00;;;;;23.94;38.93;99398.31;5005177;28;45392;-81
2023/03/09 08:18:30;;;;;;;;;0.67;0.67;;;;;24.73;38.58;99407.22;4987394;28;45443;-82
2023/03/09 08:21:03;;;;;;;;;1.00;0.33;;;;;25.42;37.58;99388.84;4991509;28;45439;-83
2023/03/09 08:23:29;;;;;;;;;0.00;0.00;;;;;25.73;35.63;99389.03;4998950;28;45436;-71
2023/03/09 08:25:54;;;;;;;;;0.00;0.00;;;;;26.10;35.49;99399.66;4999275;28;45407;-83
2023/03/09 08:28:20;;;;;;;;;1.67;1.00;;;;;26.93;32.30;99388.03;4998781;28;46181;-84
2023/03/09 08:30:45;;;;;;;;;0.00;0.00;;;;;27.93;31.66;99371.56;4998556;28;45423;-86
2023/03/09 08:33:11;;;;;;;;;1.67;1.00;;;;;29.02;30.03;99371.06;4997690;28;45488;-84
2023/03/09 08:35:36;;;;;;;;;0.00;0.00;;;;;29.75;29.50;99362.66;4998978;28;45854;-86
2023/03/09 08:38:02;;;;;;;;;0.00;0.00;;;;;29.96;28.90;99356.75;4998292;28;45396;-87
2023/03/09 08:40:27;;;;;;;;;0.00;0.00;;;;;30.40;28.90;99360.88;4998779;28;46004;-88
2023/03/09 08:42:53;;;;;;;;;0.00;0.00;;;;;30.08;27.54;99332.53;4999280;28;45510;-86
2023/03/09 08:45:18;;;;;;;;;0.00;0.00;;;;;30.01;28.13;99344.69;4999176;28;45517;-86
2023/03/09 08:47:44;;;;;;;;;1.00;0.00;;;;;30.60;27.21;99349.53;4998462;28;45535;-92
2023/03/09 08:50:10;;;;;;;;;0.00;0.00;;;;;31.28;28.00;99358.94;4998580;28;46089;-87
2023/03/09 08:52:39;;;;;;;;;1.00;0.00;;;;;31.42;26.72;99366.00;4993522;28;45493;-79
2023/03/09 08:55:07;;;;;;;;;1.67;1.67;;;;;31.64;26.19;99356.28;4997174;28;45435;-79
2023/03/09 08:57:33;;;;;;;;;0.67;0.67;;;;;32.01;27.18;99370.56;4996640;28;45426;-79
2023/03/09 08:59:59;;;;;;;;;0.00;0.00;;;;;32.06;25.89;99364.78;4998226;28;45564;-78
2023/03/09 09:02:25;;;;;;;;;0.00;0.00;;;;;31.66;25.76;99366.00;4997633;28;46271;-78
2023/03/09 09:04:51;;;;;;;;;0.00;0.00;;;;;31.83;25.60;99367.38;4998039;28;45553;-79
2023/03/09 09:07:20;;;;;;;;;0.00;0.00;;;;;32.34;24.89;99354.50;4996970;28;45892;-82
2023/03/09 09:09:46;;;;;;;;;0.00;0.00;;;;;32.60;24.02;99347.88;4996969;28;45573;-78
2023/03/09 09:12:12;;;;;;;;;0.00;0.00;;;;;32.80;24.29;99348.94;4998252;28;46001;-86
2023/03/09 09:14:38;;;;;;;;;0.00;0.00;;;;;32.69;24.54;99349.84;4997602;28;45625;-82
2023/03/09 09:17:08;;;;;;;;;0.00;0.00;;;;;32.76;25.08;99352.03;4997463;28;45558;-83
2023/03/09 09:19:38;;;;;;;;;0.00;0.00;;;;;33.03;23.87;99338.09;4995586;28;45518;-85
2023/03/09 09:22:04;;;;;;;;;0.00;0.00;;;;;32.85;24.57;99332.38;4997495;28;45792;-83
2023/03/09 09:24:32;;;;;;;;;0.67;0.00;;;;;32.83;24.45;99337.06;4998436;28;45422;-86
2023/03/09 09:26:58;;;;;;;;;0.00;0.00;;;;;32.64;24.08;99343.09;4997604;28;45839;-85
2023/03/09 09:29:24;;;;;;;;;0.00;0.00;;;;;32.78;23.75;99332.00;5000331;28;45557;-85
2023/03/09 09:31:49;;;;;;;;;0.00;0.00;;;;;32.39;24.08;99345.03;4998133;28;45545;-86
2023/03/09 09:34:17;;;;;;;;;1.67;0.67;;;;;32.12;24.17;99342.69;4997984;28;45349;-86
2023/03/09 09:36:44;;;;;;;;;0.00;0.00;;;;;32.13;24.42;99344.38;4998250;28;45343;-86
2023/03/09 09:39:12;;;;;;;;;0.00;0.00;;;;;31.90;24.24;99343.47;4997742;28;45285;-86
2023/03/09 09:41:51;;;;;;;;;0.00;0.00;;;;;31.72;24.82;99337.66;4997867;28;45277;-84
2023/03/09 09:44:23;;;;;;;;;1.00;0.00;;;;;31.81;25.11;99349.56;4997825;28;45404;-86
2023/03/09 09:46:53;;;;;;;;;0.00;0.00;;;;;31.74;25.27;99351.91;5007857;28;45536;-87
2023/03/09 09:49:23;;;;;;;;;0.67;0.00;;;;;31.67;25.03;99354.19;4986891;28;46087;-87
2023/03/09 09:52:09;;;;;;;;;0.00;0.00;;;;;31.52;25.01;99344.59;4998235;28;45552;-87
2023/03/09 09:54:42;;;;;;;;;0.00;0.00;;;;;31.46;25.20;99363.97;4998744;28;45427;-83
2023/03/09 09:57:18;;;;;;;;;0.00;0.00;;;;;30.82;25.39;99345.25;4997929;28;45391;-87
2023/03/09 10:00:16;;;;;;;;;0.00;0.00;;;;;30.83;26.05;99358.63;4997831;28;45540;-87
2023/03/09 10:03:07;;;;;;;;;2.33;1.00;;;;;30.45;25.45;99350.63;4996666;28;45375;-86
2023/03/09 10:05:55;;;;;;;;;5.33;5.00;;;;;30.21;27.04;99347.81;4990404;28;45346;-87
2023/03/09 10:08:42;;;;;;;;;0.00;0.00;;;;;30.02;25.80;99337.47;5003113;28;45620;-87
2023/03/09 10:11:31;;;;;;;;;0.00;0.00;;;;;30.12;26.20;99338.53;5000519;28;45382;-87
2023/03/09 10:14:18;;;;;;;;;0.00;0.00;;;;;30.09;26.08;99336.09;4998262;28;45335;-86
2023/03/09 10:16:52;;;;;;;;;0.00;0.00;;;;;30.20;26.59;99333.50;4995849;28;45365;-87
2023/03/09 10:19:26;;;;;;;;;0.00;0.00;;;;;30.33;26.18;99345.13;4989860;28;45379;-85
2023/03/09 10:22:01;;;;;;;;;0.00;0.00;;;;;30.20;26.14;99343.41;4992435;28;45536;-88
2023/03/09 10:24:39;;;;;;;;;0.00;0.00;;;;;29.39;26.34;99347.16;4981812;28;45408;-85
2023/03/09 10:27:20;;;;;;;;;0.00;0.00;;;;;29.19;26.62;99340.38;4993353;28;45929;-85
2023/03/09 10:30:03;;;;;;;;;0.00;0.00;;;;;28.85;27.25;99345.25;4997220;28;45513;-75
2023/03/09 10:32:57;;;;;;;;;0.00;0.00;;;;;28.74;27.95;99351.34;4997675;28;45414;-84
2023/03/09 10:35:47;;;;;;;;;0.00;0.00;;;;;28.67;27.82;99344.63;4996884;28;45391;-86
2023/03/09 10:38:18;;;;;;;;;0.00;0.00;;;;;28.42;27.57;99337.25;4983649;28;45522;-85
2023/03/09 10:40:49;;;;;;;;;0.67;0.67;;;;;28.20;28.58;99341.28;4998272;28;45480;-84
2023/03/09 10:43:34;;;;;;;;;0.00;0.00;;;;;28.20;28.93;99332.38;4996898;28;46083;-84
2023/03/09 10:46:53;;;;;;;;;0.33;0.33;;;;;28.38;28.39;99339.25;4983041;28;45485;-81
2023/03/09 10:49:19;;;;;;;;;0.00;0.00;;;;;28.21;28.82;99328.72;4940071;28;45378;-81
2023/03/09 10:52:04;;;;;;;;;0.00;0.00;;;;;28.20;29.23;99327.00;4991156;28;45692;-82
2023/03/09 10:54:35;;;;;;;;;0.67;0.00;;;;;28.40;29.32;99331.97;4997112;28;46205;-82
2023/03/09 10:57:00;;;;;;;;;0.00;0.00;;;;;28.54;28.60;99317.69;4996819;28;45567;-82
2023/03/09 10:59:28;;;;;;;;;1.33;1.00;;;;;28.69;28.42;99324.78;4996350;28;45468;-83
2023/03/09 11:01:59;;;;;;;;;2.00;2.00;;;;;28.65;28.74;99331.31;4996838;28;45602;-79
2023/03/09 11:04:28;;;;;;;;;1.00;1.00;;;;;28.43;29.40;99326.41;4997098;28;45382;-82
2023/03/09 11:07:24;;;;;;;;;1.00;1.00;;;;;28.34;29.75;99324.31;4995216;28;45341;-83
2023/03/09 11:09:52;;;;;;;;;0.67;0.67;;;;;28.36;28.88;99312.50;4997703;28;45763;-84
2023/03/09 11:12:24;;;;;;;;;0.00;0.00;;;;;28.12;29.20;99316.72;4997906;28;45408;-85
2023/03/09 11:14:58;;;;;;;;;0.00;0.00;;;;;27.90;29.08;99307.31;4996499;28;45343;-85
2023/03/09 11:17:31;;;;;;;;;0.00;0.00;;;;;27.82;29.28;99304.22;4996368;28;45498;-82
2023/03/09 11:20:19;;;;;;;;;0.00;0.00;;;;;27.82;28.94;99301.53;4996938;28;45373;-84
2023/03/09 11:22:50;;;;;;;;;1.67;1.00;;;;;27.85;29.03;99306.69;4996758;28;45467;-85
2023/03/09 11:25:35;;;;;;;;;1.67;1.00;;;;;27.91;28.40;99287.59;4978866;28;46476;-86
2023/03/09 11:28:11;;;;;;;;;0.00;0.00;;;;;28.02;28.23;99276.19;4995077;28;45603;-85
2023/03/09 11:30:38;;;;;;;;;0.00;0.00;;;;;28.09;27.32;99268.59;4998692;28;45339;-76
2023/03/09 11:33:10;;;;;;;;;0.00;0.00;;;;;28.24;27.67;99285.56;4997109;28;45394;-85
2023/03/09 11:35:36;;;;;;;;;0.00;0.00;;;;;28.20;27.68;99286.72;4997309;28;45382;-83
2023/03/09 11:38:13;;;;;;;;;0.00;0.00;;;;;28.17;26.19;99294.00;4996618;28;46105;-84